Terminal Aerodrome Forecast
Issued by NWS

Home | Current Version | Previous Version | Text Only | Print | Product List | Glossary On
Versions: 1 2 3 4 5 6 7 8 9 10 11 12 13 14 15 16 17 18 19 20 21 22 23 24 25 26 27 28 29 30
519
FTUS42 KCAE 240112 AAB
TAFCUB
TAF AMD
KCUB 240112Z 2401/2424 07005KT P6SM -SHRA VCTS OVC020CB
      TEMPO 2401/2404 1SM +TSRA OVC006CB
     FM240400 13009KT 3SM TSRA BR OVC010CB
     FM240700 10006KT 4SM -SHRA VCTS OVC015CB
     FM241400 10006KT P6SM -SHRA VCTS OVC015CB
     FM241900 36068KT 4SM -SHRA VCTS OVC015CB=

USA.gov is the U.S. government's official web portal to all federal, state and local government web resources and services.